createdAt,value
2022-11-24T00:14:52.228Z,15.45
2022-11-24T00:43:50.427Z,15.44
2022-11-24T01:41:48.948Z,15.46
2022-11-24T02:10:48.868Z,15.45
2022-11-24T02:39:46.520Z,15.44
2022-11-24T03:08:45.635Z,15.43
2022-11-24T03:37:31.732Z,15.41
2022-11-24T04:06:19.164Z,15.41
2022-11-24T04:35:07.600Z,15.41
2022-11-24T05:03:56.322Z,15.4
2022-11-24T05:32:35.087Z,15.4
2022-11-24T06:01:14.780Z,15.39
2022-11-24T06:29:58.525Z,15.4
2022-11-24T06:58:53.097Z,15.38
2022-11-24T07:27:37.874Z,15.38
2022-11-24T07:56:29.942Z,15.39
2022-11-24T08:25:18.313Z,15.42
2022-11-24T08:54:09.735Z,15.42
2022-11-24T09:23:05.664Z,15.43
2022-11-24T09:52:00.820Z,15.43
2022-11-24T10:20:50.839Z,15.44
2022-11-24T10:49:38.253Z,15.47
2022-11-24T11:18:05.115Z,15.51
2022-11-24T11:46:59.808Z,15.52
2022-11-24T12:15:33.308Z,15.52
2022-11-24T12:44:08.026Z,15.55
2022-11-24T13:12:40.329Z,15.55
2022-11-24T13:41:28.870Z,15.55
2022-11-24T14:09:38.627Z,15.65
2022-11-24T14:38:13.270Z,15.65
2022-11-24T15:06:38.792Z,15.63
2022-11-24T15:35:22.638Z,15.63
2022-11-24T16:03:59.440Z,15.6
2022-11-24T16:32:39.970Z,15.58
2022-11-24T17:01:17.624Z,15.62
2022-11-24T17:29:50.473Z,15.57
2022-11-24T17:58:27.734Z,15.56
2022-11-24T18:27:02.605Z,15.55
2022-11-24T18:55:42.339Z,15.52
2022-11-24T19:24:13.090Z,15.51
2022-11-24T19:52:55.847Z,15.49
2022-11-24T20:21:40.370Z,15.48
2022-11-24T20:50:09.673Z,15.45
2022-11-24T21:18:53.904Z,15.44
2022-11-24T21:47:36.095Z,15.42
2022-11-24T22:16:25.421Z,15.4
2022-11-24T22:45:07.943Z,15.42
2022-11-24T23:13:45.881Z,15.35
2022-11-24T23:42:29.637Z,15.33
